sensor_id;sensor_type;location;lat;lon;timestamp;P1;durP1;ratioP1;P2;durP2;ratioP2
11488;SDS011;5801;50.804;12.638;2023-05-16T00:01:43;6.00;;;5.03;;
11488;SDS011;5801;50.804;12.638;2023-05-16T00:04:09;5.55;;;5.00;;
11488;SDS011;5801;50.804;12.638;2023-05-16T00:06:35;9.07;;;6.00;;
11488;SDS011;5801;50.804;12.638;2023-05-16T00:09:01;9.85;;;5.60;;
11488;SDS011;5801;50.804;12.638;2023-05-16T00:11:27;6.75;;;5.47;;
11488;SDS011;5801;50.804;12.638;2023-05-16T00:13:53;6.93;;;5.03;;
11488;SDS011;5801;50.804;12.638;2023-05-16T00:16:19;7.65;;;5.68;;
11488;SDS011;5801;50.804;12.638;2023-05-16T00:18:45;12.95;;;6.15;;
11488;SDS011;5801;50.804;12.638;2023-05-16T00:21:12;11.02;;;6.03;;
11488;SDS011;5801;50.804;12.638;2023-05-16T00:23:38;7.28;;;5.05;;
11488;SDS011;5801;50.804;12.638;2023-05-16T00:26:04;8.88;;;5.93;;
11488;SDS011;5801;50.804;12.638;2023-05-16T00:28:30;8.57;;;4.93;;
11488;SDS011;5801;50.804;12.638;2023-05-16T00:30:56;8.50;;;5.70;;
11488;SDS011;5801;50.804;12.638;2023-05-16T00:33:22;14.00;;;5.20;;
11488;SDS011;5801;50.804;12.638;2023-05-16T00:35:48;17.88;;;5.53;;
11488;SDS011;5801;50.804;12.638;2023-05-16T00:38:14;6.40;;;4.80;;
11488;SDS011;5801;50.804;12.638;2023-05-16T00:40:40;7.65;;;4.47;;
11488;SDS011;5801;50.804;12.638;2023-05-16T00:43:06;6.13;;;5.03;;
11488;SDS011;5801;50.804;12.638;2023-05-16T00:45:32;11.98;;;6.20;;
11488;SDS011;5801;50.804;12.638;2023-05-16T00:47:58;6.38;;;5.03;;
11488;SDS011;5801;50.804;12.638;2023-05-16T00:50:23;11.32;;;5.18;;
11488;SDS011;5801;50.804;12.638;2023-05-16T00:52:49;8.77;;;4.95;;
11488;SDS011;5801;50.804;12.638;2023-05-16T00:55:15;10.07;;;5.05;;
11488;SDS011;5801;50.804;12.638;2023-05-16T00:57:41;6.65;;;5.20;;
11488;SDS011;5801;50.804;12.638;2023-05-16T01:00:07;6.70;;;5.25;;
11488;SDS011;5801;50.804;12.638;2023-05-16T01:02:34;6.60;;;5.10;;
11488;SDS011;5801;50.804;12.638;2023-05-16T01:05:01;8.63;;;5.70;;
11488;SDS011;5801;50.804;12.638;2023-05-16T01:07:29;8.60;;;5.28;;
11488;SDS011;5801;50.804;12.638;2023-05-16T01:09:56;5.80;;;4.95;;
11488;SDS011;5801;50.804;12.638;2023-05-16T01:12:42;14.35;;;4.95;;
11488;SDS011;5801;50.804;12.638;2023-05-16T01:15:24;13.15;;;5.47;;
11488;SDS011;5801;50.804;12.638;2023-05-16T01:26:32;7.72;;;5.35;;
11488;SDS011;5801;50.804;12.638;2023-05-16T01:28:40;5.50;;;4.57;;
11488;SDS011;5801;50.804;12.638;2023-05-16T01:31:06;9.82;;;5.05;;
11488;SDS011;5801;50.804;12.638;2023-05-16T01:33:32;16.52;;;5.78;;
11488;SDS011;5801;50.804;12.638;2023-05-16T01:38:32;11.10;;;5.82;;
11488;SDS011;5801;50.804;12.638;2023-05-16T01:41:03;15.23;;;5.22;;
11488;SDS011;5801;50.804;12.638;2023-05-16T01:43:33;9.85;;;5.70;;
11488;SDS011;5801;50.804;12.638;2023-05-16T01:46:10;19.83;;;5.88;;
11488;SDS011;5801;50.804;12.638;2023-05-16T01:48:52;9.43;;;5.55;;
11488;SDS011;5801;50.804;12.638;2023-05-16T01:51:20;10.10;;;6.32;;
11488;SDS011;5801;50.804;12.638;2023-05-16T01:53:46;7.85;;;5.93;;
11488;SDS011;5801;50.804;12.638;2023-05-16T01:56:14;11.00;;;6.30;;
11488;SDS011;5801;50.804;12.638;2023-05-16T01:58:40;7.82;;;5.22;;
11488;SDS011;5801;50.804;12.638;2023-05-16T02:01:06;17.73;;;5.82;;
11488;SDS011;5801;50.804;12.638;2023-05-16T02:03:33;8.35;;;6.03;;
11488;SDS011;5801;50.804;12.638;2023-05-16T02:05:59;7.68;;;5.63;;
11488;SDS011;5801;50.804;12.638;2023-05-16T02:08:26;7.75;;;5.97;;
11488;SDS011;5801;50.804;12.638;2023-05-16T02:10:52;10.23;;;5.78;;
11488;SDS011;5801;50.804;12.638;2023-05-16T02:13:18;8.77;;;6.45;;
11488;SDS011;5801;50.804;12.638;2023-05-16T02:15:44;7.25;;;5.63;;
11488;SDS011;5801;50.804;12.638;2023-05-16T02:18:10;13.27;;;6.00;;
11488;SDS011;5801;50.804;12.638;2023-05-16T02:20:36;7.10;;;5.30;;
11488;SDS011;5801;50.804;12.638;2023-05-16T02:23:02;9.98;;;5.97;;
11488;SDS011;5801;50.804;12.638;2023-05-16T02:25:28;9.75;;;6.00;;
11488;SDS011;5801;50.804;12.638;2023-05-16T02:27:54;12.02;;;6.32;;
11488;SDS011;5801;50.804;12.638;2023-05-16T02:30:20;18.52;;;6.68;;
11488;SDS011;5801;50.804;12.638;2023-05-16T02:32:46;9.43;;;5.43;;
11488;SDS011;5801;50.804;12.638;2023-05-16T02:35:13;9.02;;;5.75;;
11488;SDS011;5801;50.804;12.638;2023-05-16T02:37:39;6.35;;;5.72;;
11488;SDS011;5801;50.804;12.638;2023-05-16T02:40:05;8.07;;;5.45;;
11488;SDS011;5801;50.804;12.638;2023-05-16T02:42:31;10.55;;;5.43;;
11488;SDS011;5801;50.804;12.638;2023-05-16T02:44:58;8.90;;;5.63;;
11488;SDS011;5801;50.804;12.638;2023-05-16T02:47:24;9.57;;;5.07;;
11488;SDS011;5801;50.804;12.638;2023-05-16T02:49:50;9.75;;;5.65;;
11488;SDS011;5801;50.804;12.638;2023-05-16T02:52:19;13.55;;;5.93;;
11488;SDS011;5801;50.804;12.638;2023-05-16T02:54:45;8.43;;;5.32;;
11488;SDS011;5801;50.804;12.638;2023-05-16T02:57:11;9.25;;;6.10;;
11488;SDS011;5801;50.804;12.638;2023-05-16T02:59:37;7.00;;;5.75;;
11488;SDS011;5801;50.804;12.638;2023-05-16T03:02:03;7.00;;;5.32;;
11488;SDS011;5801;50.804;12.638;2023-05-16T03:04:29;9.55;;;5.75;;
11488;SDS011;5801;50.804;12.638;2023-05-16T03:06:56;9.85;;;5.30;;
11488;SDS011;5801;50.804;12.638;2023-05-16T03:09:22;19.05;;;5.80;;
11488;SDS011;5801;50.804;12.638;2023-05-16T03:11:48;13.32;;;5.93;;
11488;SDS011;5801;50.804;12.638;2023-05-16T03:14:14;9.48;;;6.00;;
11488;SDS011;5801;50.804;12.638;2023-05-16T03:16:40;8.98;;;6.50;;
11488;SDS011;5801;50.804;12.638;2023-05-16T03:19:07;7.05;;;5.50;;
11488;SDS011;5801;50.804;12.638;2023-05-16T03:21:33;8.57;;;6.03;;
11488;SDS011;5801;50.804;12.638;2023-05-16T03:24:00;8.52;;;6.30;;
11488;SDS011;5801;50.804;12.638;2023-05-16T03:26:26;10.73;;;5.47;;
11488;SDS011;5801;50.804;12.638;2023-05-16T03:28:52;8.00;;;5.60;;
11488;SDS011;5801;50.804;12.638;2023-05-16T03:31:18;7.53;;;5.85;;
11488;SDS011;5801;50.804;12.638;2023-05-16T03:33:44;9.02;;;5.25;;
11488;SDS011;5801;50.804;12.638;2023-05-16T03:36:10;10.10;;;5.53;;
11488;SDS011;5801;50.804;12.638;2023-05-16T03:38:36;7.13;;;5.57;;
11488;SDS011;5801;50.804;12.638;2023-05-16T03:41:02;8.40;;;6.00;;
11488;SDS011;5801;50.804;12.638;2023-05-16T03:43:28;10.23;;;6.30;;
11488;SDS011;5801;50.804;12.638;2023-05-16T03:45:54;7.00;;;5.47;;
11488;SDS011;5801;50.804;12.638;2023-05-16T03:48:20;11.25;;;5.70;;
11488;SDS011;5801;50.804;12.638;2023-05-16T03:50:46;7.88;;;5.40;;
11488;SDS011;5801;50.804;12.638;2023-05-16T03:53:12;8.55;;;5.70;;
11488;SDS011;5801;50.804;12.638;2023-05-16T03:55:38;9.23;;;6.22;;
11488;SDS011;5801;50.804;12.638;2023-05-16T03:58:04;12.82;;;6.05;;
11488;SDS011;5801;50.804;12.638;2023-05-16T04:00:31;7.88;;;5.95;;
11488;SDS011;5801;50.804;12.638;2023-05-16T04:02:58;12.75;;;6.50;;
11488;SDS011;5801;50.804;12.638;2023-05-16T04:05:24;7.38;;;6.00;;
11488;SDS011;5801;50.804;12.638;2023-05-16T04:07:50;15.15;;;5.82;;
11488;SDS011;5801;50.804;12.638;2023-05-16T04:10:16;8.95;;;6.70;;
11488;SDS011;5801;50.804;12.638;2023-05-16T04:12:42;14.57;;;7.35;;
11488;SDS011;5801;50.804;12.638;2023-05-16T04:15:08;11.60;;;6.32;;
11488;SDS011;5801;50.804;12.638;2023-05-16T04:17:34;13.32;;;6.28;;
11488;SDS011;5801;50.804;12.638;2023-05-16T04:20:00;11.18;;;6.72;;
11488;SDS011;5801;50.804;12.638;2023-05-16T04:22:27;9.30;;;6.65;;
11488;SDS011;5801;50.804;12.638;2023-05-16T04:24:53;9.77;;;7.15;;
11488;SDS011;5801;50.804;12.638;2023-05-16T04:27:19;13.60;;;6.57;;
11488;SDS011;5801;50.804;12.638;2023-05-16T04:29:45;10.18;;;6.45;;
11488;SDS011;5801;50.804;12.638;2023-05-16T04:32:11;8.38;;;6.18;;
11488;SDS011;5801;50.804;12.638;2023-05-16T04:34:37;7.25;;;5.55;;
11488;SDS011;5801;50.804;12.638;2023-05-16T04:37:05;8.85;;;6.65;;
11488;SDS011;5801;50.804;12.638;2023-05-16T04:39:31;10.93;;;7.50;;
11488;SDS011;5801;50.804;12.638;2023-05-16T04:41:57;14.95;;;6.93;;
11488;SDS011;5801;50.804;12.638;2023-05-16T04:44:26;10.25;;;7.40;;
11488;SDS011;5801;50.804;12.638;2023-05-16T04:46:52;13.02;;;8.30;;
11488;SDS011;5801;50.804;12.638;2023-05-16T04:49:19;14.48;;;9.02;;
11488;SDS011;5801;50.804;12.638;2023-05-16T04:51:45;14.07;;;9.02;;
11488;SDS011;5801;50.804;12.638;2023-05-16T04:54:12;11.80;;;8.40;;
11488;SDS011;5801;50.804;12.638;2023-05-16T04:56:38;15.30;;;9.93;;
11488;SDS011;5801;50.804;12.638;2023-05-16T04:59:04;15.98;;;8.23;;
11488;SDS011;5801;50.804;12.638;2023-05-16T05:01:30;14.77;;;8.10;;
11488;SDS011;5801;50.804;12.638;2023-05-16T05:03:56;14.57;;;9.13;;
11488;SDS011;5801;50.804;12.638;2023-05-16T05:06:22;13.85;;;8.02;;
11488;SDS011;5801;50.804;12.638;2023-05-16T05:08:48;16.27;;;7.90;;
11488;SDS011;5801;50.804;12.638;2023-05-16T05:11:14;10.98;;;8.45;;
11488;SDS011;5801;50.804;12.638;2023-05-16T05:13:40;12.13;;;8.65;;
11488;SDS011;5801;50.804;12.638;2023-05-16T05:16:06;17.17;;;9.27;;
11488;SDS011;5801;50.804;12.638;2023-05-16T05:18:32;14.45;;;8.32;;
11488;SDS011;5801;50.804;12.638;2023-05-16T05:20:58;11.48;;;8.02;;
11488;SDS011;5801;50.804;12.638;2023-05-16T05:23:24;12.13;;;8.25;;
11488;SDS011;5801;50.804;12.638;2023-05-16T05:25:50;11.55;;;8.82;;
11488;SDS011;5801;50.804;12.638;2023-05-16T05:28:16;13.80;;;8.98;;
11488;SDS011;5801;50.804;12.638;2023-05-16T05:30:42;11.27;;;8.20;;
11488;SDS011;5801;50.804;12.638;2023-05-16T05:33:09;12.88;;;7.82;;
11488;SDS011;5801;50.804;12.638;2023-05-16T05:35:36;17.27;;;9.43;;
11488;SDS011;5801;50.804;12.638;2023-05-16T05:38:02;13.70;;;9.38;;
11488;SDS011;5801;50.804;12.638;2023-05-16T05:40:28;13.55;;;9.07;;
11488;SDS011;5801;50.804;12.638;2023-05-16T05:42:54;17.35;;;9.95;;
11488;SDS011;5801;50.804;12.638;2023-05-16T05:45:20;18.20;;;10.55;;
11488;SDS011;5801;50.804;12.638;2023-05-16T05:47:46;17.15;;;10.52;;
11488;SDS011;5801;50.804;12.638;2023-05-16T05:50:12;16.77;;;9.45;;
11488;SDS011;5801;50.804;12.638;2023-05-16T05:52:39;21.20;;;11.98;;
11488;SDS011;5801;50.804;12.638;2023-05-16T05:55:05;14.77;;;10.38;;
11488;SDS011;5801;50.804;12.638;2023-05-16T05:57:31;15.80;;;11.13;;
11488;SDS011;5801;50.804;12.638;2023-05-16T05:59:57;15.98;;;10.48;;
11488;SDS011;5801;50.804;12.638;2023-05-16T06:02:23;15.23;;;9.80;;
11488;SDS011;5801;50.804;12.638;2023-05-16T06:04:49;14.90;;;9.30;;
11488;SDS011;5801;50.804;12.638;2023-05-16T06:07:15;19.20;;;10.77;;
11488;SDS011;5801;50.804;12.638;2023-05-16T06:09:42;16.05;;;9.65;;
11488;SDS011;5801;50.804;12.638;2023-05-16T06:12:08;16.55;;;9.95;;
11488;SDS011;5801;50.804;12.638;2023-05-16T06:14:34;16.67;;;9.90;;
11488;SDS011;5801;50.804;12.638;2023-05-16T06:17:00;21.10;;;10.40;;
11488;SDS011;5801;50.804;12.638;2023-05-16T06:19:26;15.50;;;9.70;;
11488;SDS011;5801;50.804;12.638;2023-05-16T06:21:52;21.23;;;10.15;;
11488;SDS011;5801;50.804;12.638;2023-05-16T06:24:17;17.50;;;10.30;;
11488;SDS011;5801;50.804;12.638;2023-05-16T06:26:43;16.83;;;10.18;;
11488;SDS011;5801;50.804;12.638;2023-05-16T06:29:13;16.58;;;10.55;;
11488;SDS011;5801;50.804;12.638;2023-05-16T06:31:39;16.67;;;9.88;;
11488;SDS011;5801;50.804;12.638;2023-05-16T06:34:05;18.67;;;9.80;;
11488;SDS011;5801;50.804;12.638;2023-05-16T06:36:31;17.77;;;11.32;;
11488;SDS011;5801;50.804;12.638;2023-05-16T06:38:57;19.88;;;11.18;;
11488;SDS011;5801;50.804;12.638;2023-05-16T06:41:23;15.70;;;9.82;;
11488;SDS011;5801;50.804;12.638;2023-05-16T06:43:50;16.38;;;10.48;;
11488;SDS011;5801;50.804;12.638;2023-05-16T06:46:16;16.90;;;10.18;;
11488;SDS011;5801;50.804;12.638;2023-05-16T06:48:42;17.73;;;10.38;;
11488;SDS011;5801;50.804;12.638;2023-05-16T06:51:08;18.45;;;10.38;;
11488;SDS011;5801;50.804;12.638;2023-05-16T06:53:34;15.18;;;9.82;;
11488;SDS011;5801;50.804;12.638;2023-05-16T06:56:00;19.50;;;10.02;;
11488;SDS011;5801;50.804;12.638;2023-05-16T06:58:26;15.02;;;9.82;;
11488;SDS011;5801;50.804;12.638;2023-05-16T07:00:52;23.88;;;10.07;;
11488;SDS011;5801;50.804;12.638;2023-05-16T07:03:18;16.08;;;10.10;;
11488;SDS011;5801;50.804;12.638;2023-05-16T07:05:44;18.10;;;10.85;;
11488;SDS011;5801;50.804;12.638;2023-05-16T07:08:10;15.13;;;9.43;;
11488;SDS011;5801;50.804;12.638;2023-05-16T07:10:36;16.58;;;10.27;;
11488;SDS011;5801;50.804;12.638;2023-05-16T07:13:02;16.92;;;9.75;;
11488;SDS011;5801;50.804;12.638;2023-05-16T07:15:29;13.57;;;10.00;;
11488;SDS011;5801;50.804;12.638;2023-05-16T07:17:55;17.42;;;11.52;;
11488;SDS011;5801;50.804;12.638;2023-05-16T07:20:21;19.83;;;10.75;;
11488;SDS011;5801;50.804;12.638;2023-05-16T07:22:47;17.15;;;10.25;;
11488;SDS011;5801;50.804;12.638;2023-05-16T07:25:13;17.70;;;10.85;;
11488;SDS011;5801;50.804;12.638;2023-05-16T07:27:40;14.65;;;10.30;;
11488;SDS011;5801;50.804;12.638;2023-05-16T07:30:08;15.82;;;10.43;;
11488;SDS011;5801;50.804;12.638;2023-05-16T07:32:34;19.15;;;10.88;;
11488;SDS011;5801;50.804;12.638;2023-05-16T07:35:01;17.60;;;10.43;;
11488;SDS011;5801;50.804;12.638;2023-05-16T07:37:27;19.45;;;11.02;;
11488;SDS011;5801;50.804;12.638;2023-05-16T07:39:53;16.42;;;9.98;;
11488;SDS011;5801;50.804;12.638;2023-05-16T07:42:19;17.60;;;11.50;;
11488;SDS011;5801;50.804;12.638;2023-05-16T07:44:45;22.33;;;11.25;;
11488;SDS011;5801;50.804;12.638;2023-05-16T07:47:11;18.08;;;11.80;;
11488;SDS011;5801;50.804;12.638;2023-05-16T07:49:37;19.25;;;11.68;;
11488;SDS011;5801;50.804;12.638;2023-05-16T07:52:03;24.13;;;11.32;;
11488;SDS011;5801;50.804;12.638;2023-05-16T07:54:29;21.55;;;11.07;;
11488;SDS011;5801;50.804;12.638;2023-05-16T07:56:56;20.05;;;12.35;;
11488;SDS011;5801;50.804;12.638;2023-05-16T07:59:22;22.20;;;11.57;;
11488;SDS011;5801;50.804;12.638;2023-05-16T08:01:48;17.20;;;10.50;;
11488;SDS011;5801;50.804;12.638;2023-05-16T08:04:13;15.90;;;10.23;;
11488;SDS011;5801;50.804;12.638;2023-05-16T08:06:40;22.80;;;11.60;;
11488;SDS011;5801;50.804;12.638;2023-05-16T08:09:05;16.10;;;10.65;;
11488;SDS011;5801;50.804;12.638;2023-05-16T08:11:33;19.88;;;12.27;;
11488;SDS011;5801;50.804;12.638;2023-05-16T08:13:59;19.88;;;11.52;;
11488;SDS011;5801;50.804;12.638;2023-05-16T08:16:25;18.17;;;11.35;;
11488;SDS011;5801;50.804;12.638;2023-05-16T08:18:50;19.52;;;11.82;;
11488;SDS011;5801;50.804;12.638;2023-05-16T08:21:17;18.05;;;12.02;;
11488;SDS011;5801;50.804;12.638;2023-05-16T08:23:43;17.10;;;11.25;;
11488;SDS011;5801;50.804;12.638;2023-05-16T08:26:09;24.23;;;11.70;;
11488;SDS011;5801;50.804;12.638;2023-05-16T08:28:35;17.85;;;11.43;;
11488;SDS011;5801;50.804;12.638;2023-05-16T08:31:00;17.27;;;10.80;;
11488;SDS011;5801;50.804;12.638;2023-05-16T08:33:26;19.70;;;10.90;;
11488;SDS011;5801;50.804;12.638;2023-05-16T08:35:52;18.20;;;10.82;;
11488;SDS011;5801;50.804;12.638;2023-05-16T08:38:18;18.92;;;9.35;;
11488;SDS011;5801;50.804;12.638;2023-05-16T08:40:44;15.15;;;9.45;;
11488;SDS011;5801;50.804;12.638;2023-05-16T08:43:10;12.48;;;9.32;;
11488;SDS011;5801;50.804;12.638;2023-05-16T08:45:36;16.55;;;10.00;;
11488;SDS011;5801;50.804;12.638;2023-05-16T08:48:02;13.43;;;8.80;;
11488;SDS011;5801;50.804;12.638;2023-05-16T08:50:30;13.57;;;8.45;;
11488;SDS011;5801;50.804;12.638;2023-05-16T08:52:56;12.75;;;8.70;;
11488;SDS011;5801;50.804;12.638;2023-05-16T08:55:23;14.27;;;8.63;;
11488;SDS011;5801;50.804;12.638;2023-05-16T08:57:49;12.15;;;8.35;;
11488;SDS011;5801;50.804;12.638;2023-05-16T09:00:16;18.40;;;8.15;;
11488;SDS011;5801;50.804;12.638;2023-05-16T09:02:43;12.38;;;8.68;;
11488;SDS011;5801;50.804;12.638;2023-05-16T09:05:12;9.98;;;7.38;;
11488;SDS011;5801;50.804;12.638;2023-05-16T09:07:38;14.40;;;8.70;;
11488;SDS011;5801;50.804;12.638;2023-05-16T09:10:08;11.55;;;7.80;;
11488;SDS011;5801;50.804;12.638;2023-05-16T09:12:34;14.15;;;8.40;;
11488;SDS011;5801;50.804;12.638;2023-05-16T09:15:00;11.38;;;7.78;;
11488;SDS011;5801;50.804;12.638;2023-05-16T09:17:33;12.85;;;7.75;;
11488;SDS011;5801;50.804;12.638;2023-05-16T09:20:00;12.43;;;8.32;;
11488;SDS011;5801;50.804;12.638;2023-05-16T09:22:32;13.40;;;8.70;;
11488;SDS011;5801;50.804;12.638;2023-05-16T09:24:58;12.52;;;8.00;;
11488;SDS011;5801;50.804;12.638;2023-05-16T09:27:24;13.45;;;7.70;;
11488;SDS011;5801;50.804;12.638;2023-05-16T09:29:50;12.38;;;7.40;;
11488;SDS011;5801;50.804;12.638;2023-05-16T09:32:16;13.32;;;8.43;;
11488;SDS011;5801;50.804;12.638;2023-05-16T09:34:46;17.27;;;8.27;;
11488;SDS011;5801;50.804;12.638;2023-05-16T09:37:13;18.27;;;8.30;;
11488;SDS011;5801;50.804;12.638;2023-05-16T09:39:44;15.82;;;8.40;;
11488;SDS011;5801;50.804;12.638;2023-05-16T09:42:11;12.40;;;7.75;;
11488;SDS011;5801;50.804;12.638;2023-05-16T09:44:37;15.65;;;8.70;;
11488;SDS011;5801;50.804;12.638;2023-05-16T09:47:04;14.93;;;7.47;;
11488;SDS011;5801;50.804;12.638;2023-05-16T09:49:30;13.43;;;8.20;;
11488;SDS011;5801;50.804;12.638;2023-05-16T09:51:59;14.00;;;7.88;;
11488;SDS011;5801;50.804;12.638;2023-05-16T09:54:31;12.82;;;8.43;;
11488;SDS011;5801;50.804;12.638;2023-05-16T09:56:58;11.52;;;7.75;;
11488;SDS011;5801;50.804;12.638;2023-05-16T09:59:24;11.48;;;7.75;;
11488;SDS011;5801;50.804;12.638;2023-05-16T10:01:50;14.93;;;7.75;;
11488;SDS011;5801;50.804;12.638;2023-05-16T10:04:18;9.70;;;6.63;;
11488;SDS011;5801;50.804;12.638;2023-05-16T10:06:44;10.98;;;7.30;;
11488;SDS011;5801;50.804;12.638;2023-05-16T10:09:10;15.50;;;7.28;;
11488;SDS011;5801;50.804;12.638;2023-05-16T10:11:40;10.43;;;6.38;;
11488;SDS011;5801;50.804;12.638;2023-05-16T10:14:08;17.60;;;6.80;;
11488;SDS011;5801;50.804;12.638;2023-05-16T10:16:35;8.35;;;6.28;;
11488;SDS011;5801;50.804;12.638;2023-05-16T10:19:02;9.02;;;5.85;;
11488;SDS011;5801;50.804;12.638;2023-05-16T10:21:29;10.07;;;5.70;;
11488;SDS011;5801;50.804;12.638;2023-05-16T10:23:57;8.32;;;5.95;;
11488;SDS011;5801;50.804;12.638;2023-05-16T10:26:27;9.35;;;6.40;;
11488;SDS011;5801;50.804;12.638;2023-05-16T10:28:54;9.40;;;5.82;;
11488;SDS011;5801;50.804;12.638;2023-05-16T10:31:20;10.02;;;5.93;;
11488;SDS011;5801;50.804;12.638;2023-05-16T10:33:46;6.80;;;5.72;;
11488;SDS011;5801;50.804;12.638;2023-05-16T10:36:12;7.53;;;4.95;;
11488;SDS011;5801;50.804;12.638;2023-05-16T10:38:38;12.77;;;6.10;;
11488;SDS011;5801;50.804;12.638;2023-05-16T10:41:05;7.68;;;5.15;;
11488;SDS011;5801;50.804;12.638;2023-05-16T10:43:31;6.60;;;5.13;;
11488;SDS011;5801;50.804;12.638;2023-05-16T10:46:07;5.90;;;3.95;;
11488;SDS011;5801;50.804;12.638;2023-05-16T10:48:40;4.50;;;3.92;;
11488;SDS011;5801;50.804;12.638;2023-05-16T10:53:47;6.03;;;4.43;;
11488;SDS011;5801;50.804;12.638;2023-05-16T10:56:15;6.60;;;4.57;;
11488;SDS011;5801;50.804;12.638;2023-05-16T10:58:51;5.78;;;4.00;;
11488;SDS011;5801;50.804;12.638;2023-05-16T11:01:22;4.18;;;3.67;;
11488;SDS011;5801;50.804;12.638;2023-05-16T11:09:05;4.07;;;3.28;;
11488;SDS011;5801;50.804;12.638;2023-05-16T11:11:43;3.53;;;2.97;;
11488;SDS011;5801;50.804;12.638;2023-05-16T11:14:25;3.13;;;2.83;;
11488;SDS011;5801;50.804;12.638;2023-05-16T11:19:47;2.60;;;2.40;;
11488;SDS011;5801;50.804;12.638;2023-05-16T11:27:24;5.45;;;2.97;;
11488;SDS011;5801;50.804;12.638;2023-05-16T11:29:50;3.75;;;2.88;;
11488;SDS011;5801;50.804;12.638;2023-05-16T11:32:19;3.42;;;3.00;;
11488;SDS011;5801;50.804;12.638;2023-05-16T11:34:46;4.50;;;3.53;;
11488;SDS011;5801;50.804;12.638;2023-05-16T11:37:12;4.85;;;3.60;;
11488;SDS011;5801;50.804;12.638;2023-05-16T11:39:39;6.05;;;4.22;;
11488;SDS011;5801;50.804;12.638;2023-05-16T11:42:04;5.13;;;3.90;;
11488;SDS011;5801;50.804;12.638;2023-05-16T11:44:30;5.00;;;3.70;;
11488;SDS011;5801;50.804;12.638;2023-05-16T11:46:55;4.22;;;3.55;;
11488;SDS011;5801;50.804;12.638;2023-05-16T11:49:21;5.68;;;4.05;;
11488;SDS011;5801;50.804;12.638;2023-05-16T11:51:47;6.85;;;3.95;;
11488;SDS011;5801;50.804;12.638;2023-05-16T11:54:13;5.00;;;3.63;;
11488;SDS011;5801;50.804;12.638;2023-05-16T11:56:39;3.42;;;2.65;;
11488;SDS011;5801;50.804;12.638;2023-05-16T11:59:05;4.22;;;3.28;;
11488;SDS011;5801;50.804;12.638;2023-05-16T12:01:35;6.00;;;2.78;;
11488;SDS011;5801;50.804;12.638;2023-05-16T12:04:06;2.97;;;2.08;;
11488;SDS011;5801;50.804;12.638;2023-05-16T12:06:39;2.25;;;2.05;;
11488;SDS011;5801;50.804;12.638;2023-05-16T12:09:10;2.20;;;1.80;;
11488;SDS011;5801;50.804;12.638;2023-05-16T12:11:37;1.88;;;1.67;;
11488;SDS011;5801;50.804;12.638;2023-05-16T12:14:04;2.85;;;1.67;;
11488;SDS011;5801;50.804;12.638;2023-05-16T12:16:34;1.23;;;1.13;;
11488;SDS011;5801;50.804;12.638;2023-05-16T12:19:01;3.20;;;1.75;;
11488;SDS011;5801;50.804;12.638;2023-05-16T12:21:30;5.53;;;1.60;;
11488;SDS011;5801;50.804;12.638;2023-05-16T12:23:56;2.85;;;1.52;;
11488;SDS011;5801;50.804;12.638;2023-05-16T12:26:24;2.00;;;1.70;;
11488;SDS011;5801;50.804;12.638;2023-05-16T12:28:57;2.30;;;1.55;;
11488;SDS011;5801;50.804;12.638;2023-05-16T12:31:28;2.15;;;1.40;;
11488;SDS011;5801;50.804;12.638;2023-05-16T12:33:55;1.70;;;1.60;;
11488;SDS011;5801;50.804;12.638;2023-05-16T12:36:21;1.30;;;1.20;;
11488;SDS011;5801;50.804;12.638;2023-05-16T12:38:48;2.28;;;1.63;;
11488;SDS011;5801;50.804;12.638;2023-05-16T12:41:17;2.75;;;1.40;;
11488;SDS011;5801;50.804;12.638;2023-05-16T12:43:44;2.90;;;1.90;;
11488;SDS011;5801;50.804;12.638;2023-05-16T12:46:09;6.88;;;1.88;;
11488;SDS011;5801;50.804;12.638;2023-05-16T12:48:38;1.88;;;1.75;;
11488;SDS011;5801;50.804;12.638;2023-05-16T12:51:12;4.15;;;2.20;;
11488;SDS011;5801;50.804;12.638;2023-05-16T12:53:42;4.88;;;1.90;;
11488;SDS011;5801;50.804;12.638;2023-05-16T12:56:09;3.70;;;2.10;;
11488;SDS011;5801;50.804;12.638;2023-05-16T12:58:36;3.08;;;2.10;;
11488;SDS011;5801;50.804;12.638;2023-05-16T13:01:02;3.38;;;2.03;;
11488;SDS011;5801;50.804;12.638;2023-05-16T13:03:28;2.40;;;1.90;;
11488;SDS011;5801;50.804;12.638;2023-05-16T13:05:54;2.92;;;2.05;;
11488;SDS011;5801;50.804;12.638;2023-05-16T13:08:20;4.15;;;1.90;;
11488;SDS011;5801;50.804;12.638;2023-05-16T13:10:45;4.97;;;2.70;;
11488;SDS011;5801;50.804;12.638;2023-05-16T13:13:11;2.40;;;2.20;;
11488;SDS011;5801;50.804;12.638;2023-05-16T13:15:36;3.00;;;2.13;;
11488;SDS011;5801;50.804;12.638;2023-05-16T13:18:02;7.22;;;2.13;;
11488;SDS011;5801;50.804;12.638;2023-05-16T13:20:27;3.65;;;2.67;;
11488;SDS011;5801;50.804;12.638;2023-05-16T13:22:53;5.35;;;2.63;;
11488;SDS011;5801;50.804;12.638;2023-05-16T13:25:19;4.97;;;2.67;;
11488;SDS011;5801;50.804;12.638;2023-05-16T13:27:45;3.55;;;2.67;;
11488;SDS011;5801;50.804;12.638;2023-05-16T13:30:13;5.50;;;2.60;;
11488;SDS011;5801;50.804;12.638;2023-05-16T13:32:38;8.73;;;3.08;;
11488;SDS011;5801;50.804;12.638;2023-05-16T13:35:05;4.82;;;2.53;;
11488;SDS011;5801;50.804;12.638;2023-05-16T13:37:31;8.63;;;3.40;;
11488;SDS011;5801;50.804;12.638;2023-05-16T13:39:56;4.80;;;3.08;;
11488;SDS011;5801;50.804;12.638;2023-05-16T13:42:22;5.60;;;2.58;;
11488;SDS011;5801;50.804;12.638;2023-05-16T13:44:47;4.30;;;3.13;;
11488;SDS011;5801;50.804;12.638;2023-05-16T13:47:13;3.00;;;2.70;;
11488;SDS011;5801;50.804;12.638;2023-05-16T13:49:39;4.57;;;2.70;;
11488;SDS011;5801;50.804;12.638;2023-05-16T13:52:05;9.40;;;2.85;;
11488;SDS011;5801;50.804;12.638;2023-05-16T13:54:31;5.90;;;2.95;;
11488;SDS011;5801;50.804;12.638;2023-05-16T13:56:56;3.55;;;2.10;;
11488;SDS011;5801;50.804;12.638;2023-05-16T13:59:22;4.47;;;2.88;;
11488;SDS011;5801;50.804;12.638;2023-05-16T14:01:47;5.25;;;2.67;;
11488;SDS011;5801;50.804;12.638;2023-05-16T14:04:13;4.10;;;2.40;;
11488;SDS011;5801;50.804;12.638;2023-05-16T14:06:38;4.95;;;2.47;;
11488;SDS011;5801;50.804;12.638;2023-05-16T14:09:04;5.85;;;2.90;;
11488;SDS011;5801;50.804;12.638;2023-05-16T14:11:30;7.35;;;2.50;;
11488;SDS011;5801;50.804;12.638;2023-05-16T14:13:56;6.03;;;3.25;;
11488;SDS011;5801;50.804;12.638;2023-05-16T14:16:21;6.90;;;2.75;;
11488;SDS011;5801;50.804;12.638;2023-05-16T14:18:47;7.05;;;2.85;;
11488;SDS011;5801;50.804;12.638;2023-05-16T14:21:12;4.75;;;2.78;;
11488;SDS011;5801;50.804;12.638;2023-05-16T14:23:38;7.35;;;2.28;;
11488;SDS011;5801;50.804;12.638;2023-05-16T14:26:04;7.78;;;2.85;;
11488;SDS011;5801;50.804;12.638;2023-05-16T14:28:30;9.07;;;4.07;;
11488;SDS011;5801;50.804;12.638;2023-05-16T14:30:57;13.57;;;5.90;;
11488;SDS011;5801;50.804;12.638;2023-05-16T14:33:23;13.55;;;6.45;;
11488;SDS011;5801;50.804;12.638;2023-05-16T14:35:48;22.77;;;8.15;;
11488;SDS011;5801;50.804;12.638;2023-05-16T14:38:14;10.10;;;3.70;;
11488;SDS011;5801;50.804;12.638;2023-05-16T14:40:40;7.78;;;2.92;;
11488;SDS011;5801;50.804;12.638;2023-05-16T14:43:05;4.07;;;2.63;;
11488;SDS011;5801;50.804;12.638;2023-05-16T14:45:31;8.00;;;2.65;;
11488;SDS011;5801;50.804;12.638;2023-05-16T14:47:57;5.75;;;2.55;;
11488;SDS011;5801;50.804;12.638;2023-05-16T14:50:23;4.32;;;2.38;;
11488;SDS011;5801;50.804;12.638;2023-05-16T14:52:48;4.68;;;2.70;;
11488;SDS011;5801;50.804;12.638;2023-05-16T14:55:14;12.93;;;2.63;;
11488;SDS011;5801;50.804;12.638;2023-05-16T14:57:39;5.88;;;1.75;;
11488;SDS011;5801;50.804;12.638;2023-05-16T15:00:05;5.30;;;2.10;;
11488;SDS011;5801;50.804;12.638;2023-05-16T15:02:31;5.30;;;2.20;;